sensor_id;sensor_type;location;lat;lon;timestamp;temperature;humidity
66827;DHT22;53727;45.242;19.796;2022-11-20T04:28:15;205.30;2252.80
66827;DHT22;53727;45.242;19.796;2022-11-20T04:30:41;205.00;2252.80
66827;DHT22;53727;45.242;19.796;2022-11-20T04:33:07;204.90;2252.80
66827;DHT22;53727;45.242;19.796;2022-11-20T04:35:36;205.00;2252.80
66827;DHT22;53727;45.242;19.796;2022-11-20T05:14:35;179.70;2252.80
66827;DHT22;53727;45.242;19.796;2022-11-20T05:17:01;179.50;2252.80
66827;DHT22;53727;45.242;19.796;2022-11-20T05:19:27;179.40;2252.80
66827;DHT22;53727;45.242;19.796;2022-11-20T05:21:52;179.50;2252.80
66827;DHT22;53727;45.242;19.796;2022-11-20T05:24:18;179.60;2252.80
66827;DHT22;53727;45.242;19.796;2022-11-20T05:26:44;179.60;2252.80
66827;DHT22;53727;45.242;19.796;2022-11-20T05:29:12;179.70;2252.80
66827;DHT22;53727;45.242;19.796;2022-11-20T05:31:40;179.60;2252.80
66827;DHT22;53727;45.242;19.796;2022-11-20T05:34:06;179.60;2252.80
66827;DHT22;53727;45.242;19.796;2022-11-20T05:36:32;179.70;2252.80
66827;DHT22;53727;45.242;19.796;2022-11-20T05:38:58;179.80;2252.80
66827;DHT22;53727;45.242;19.796;2022-11-20T05:41:23;179.70;2252.80
66827;DHT22;53727;45.242;19.796;2022-11-20T05:43:49;179.80;2252.80
66827;DHT22;53727;45.242;19.796;2022-11-20T05:46:17;179.90;2252.80
66827;DHT22;53727;45.242;19.796;2022-11-20T05:48:44;179.90;2252.80
66827;DHT22;53727;45.242;19.796;2022-11-20T05:51:13;179.80;2252.80
66827;DHT22;53727;45.242;19.796;2022-11-20T05:53:39;179.80;2252.80
66827;DHT22;53727;45.242;19.796;2022-11-20T05:56:13;179.70;2252.80
66827;DHT22;53727;45.242;19.796;2022-11-20T05:58:40;179.70;2252.80
66827;DHT22;53727;45.242;19.796;2022-11-20T06:03:36;179.90;2252.80
66827;DHT22;53727;45.242;19.796;2022-11-20T06:06:04;179.90;2252.80
66827;DHT22;53727;45.242;19.796;2022-11-20T06:08:30;179.90;2252.80
66827;DHT22;53727;45.242;19.796;2022-11-20T06:10:56;179.90;2252.80
66827;DHT22;53727;45.242;19.796;2022-11-20T06:13:22;180.00;2252.80
66827;DHT22;53727;45.242;19.796;2022-11-20T06:15:52;180.00;2252.80
66827;DHT22;53727;45.242;19.796;2022-11-20T06:18:18;180.00;2252.80
66827;DHT22;53727;45.242;19.796;2022-11-20T06:20:45;179.90;2252.80
66827;DHT22;53727;45.242;19.796;2022-11-20T06:23:12;179.80;2252.80
66827;DHT22;53727;45.242;19.796;2022-11-20T06:25:42;179.80;2252.80
66827;DHT22;53727;45.242;19.796;2022-11-20T06:28:08;179.70;2252.80
66827;DHT22;53727;45.242;19.796;2022-11-20T06:30:35;179.80;2252.80
66827;DHT22;53727;45.242;19.796;2022-11-20T06:33:01;179.80;2252.80
66827;DHT22;53727;45.242;19.796;2022-11-20T06:35:26;179.80;2252.80
66827;DHT22;53727;45.242;19.796;2022-11-20T06:37:52;179.90;2252.80
66827;DHT22;53727;45.242;19.796;2022-11-20T06:40:18;179.90;2252.80
66827;DHT22;53727;45.242;19.796;2022-11-20T06:42:44;179.70;2252.80
66827;DHT22;53727;45.242;19.796;2022-11-20T06:45:10;179.70;2252.80
66827;DHT22;53727;45.242;19.796;2022-11-20T06:47:35;179.80;2252.80
66827;DHT22;53727;45.242;19.796;2022-11-20T06:50:01;179.90;2252.80
66827;DHT22;53727;45.242;19.796;2022-11-20T06:52:27;180.00;2252.80
66827;DHT22;53727;45.242;19.796;2022-11-20T06:54:52;179.90;2252.80
66827;DHT22;53727;45.242;19.796;2022-11-20T06:57:18;179.80;2252.80
66827;DHT22;53727;45.242;19.796;2022-11-20T06:59:44;179.90;2252.80
66827;DHT22;53727;45.242;19.796;2022-11-20T07:02:10;180.00;2252.80
66827;DHT22;53727;45.242;19.796;2022-11-20T07:04:37;180.10;2252.80
66827;DHT22;53727;45.242;19.796;2022-11-20T07:07:03;180.10;2252.80
66827;DHT22;53727;45.242;19.796;2022-11-20T07:09:28;180.10;2252.80
66827;DHT22;53727;45.242;19.796;2022-11-20T07:11:54;179.90;2252.80
66827;DHT22;53727;45.242;19.796;2022-11-20T07:14:20;179.80;2252.80
66827;DHT22;53727;45.242;19.796;2022-11-20T07:16:45;179.70;2252.80
66827;DHT22;53727;45.242;19.796;2022-11-20T07:19:11;179.60;2252.80
66827;DHT22;53727;45.242;19.796;2022-11-20T07:21:37;179.70;2252.80
66827;DHT22;53727;45.242;19.796;2022-11-20T07:24:03;179.80;2252.80
66827;DHT22;53727;45.242;19.796;2022-11-20T07:26:28;179.80;2252.80
66827;DHT22;53727;45.242;19.796;2022-11-20T07:28:54;179.80;2252.80
66827;DHT22;53727;45.242;19.796;2022-11-20T07:31:20;179.60;2252.80
66827;DHT22;53727;45.242;19.796;2022-11-20T07:33:46;179.40;2252.80
66827;DHT22;53727;45.242;19.796;2022-11-20T07:36:12;179.30;2252.80
66827;DHT22;53727;45.242;19.796;2022-11-20T07:38:38;179.20;2252.80
66827;DHT22;53727;45.242;19.796;2022-11-20T07:41:03;179.20;2252.80
66827;DHT22;53727;45.242;19.796;2022-11-20T07:43:29;179.30;2252.80
66827;DHT22;53727;45.242;19.796;2022-11-20T07:45:56;179.30;2252.80
66827;DHT22;53727;45.242;19.796;2022-11-20T07:48:22;179.20;2252.80
66827;DHT22;53727;45.242;19.796;2022-11-20T07:50:48;179.20;2252.80
66827;DHT22;53727;45.242;19.796;2022-11-20T07:53:14;179.30;2252.80
66827;DHT22;53727;45.242;19.796;2022-11-20T07:55:46;154.50;2252.80
66827;DHT22;53727;45.242;19.796;2022-11-20T07:58:12;154.50;2252.80
66827;DHT22;53727;45.242;19.796;2022-11-20T08:00:37;179.20;2252.80
66827;DHT22;53727;45.242;19.796;2022-11-20T08:03:04;179.30;2252.80
66827;DHT22;53727;45.242;19.796;2022-11-20T08:05:30;179.20;2252.80
66827;DHT22;53727;45.242;19.796;2022-11-20T08:07:55;179.30;2252.80
66827;DHT22;53727;45.242;19.796;2022-11-20T08:10:21;179.40;2252.80
66827;DHT22;53727;45.242;19.796;2022-11-20T08:12:48;179.40;2252.80
66827;DHT22;53727;45.242;19.796;2022-11-20T08:15:33;179.50;2252.80
66827;DHT22;53727;45.242;19.796;2022-11-20T08:18:01;179.40;2252.80
66827;DHT22;53727;45.242;19.796;2022-11-20T08:20:26;179.30;2252.80
66827;DHT22;53727;45.242;19.796;2022-11-20T08:22:56;179.20;2252.80
66827;DHT22;53727;45.242;19.796;2022-11-20T08:25:22;179.20;2252.80
66827;DHT22;53727;45.242;19.796;2022-11-20T08:27:48;179.40;2252.80
66827;DHT22;53727;45.242;19.796;2022-11-20T08:30:14;179.40;2252.80
66827;DHT22;53727;45.242;19.796;2022-11-20T08:32:39;179.60;2252.80
66827;DHT22;53727;45.242;19.796;2022-11-20T08:35:05;179.50;2252.80
66827;DHT22;53727;45.242;19.796;2022-11-20T08:37:31;179.70;2252.80
66827;DHT22;53727;45.242;19.796;2022-11-20T08:39:57;179.60;2252.80
66827;DHT22;53727;45.242;19.796;2022-11-20T08:42:22;179.70;2252.80
66827;DHT22;53727;45.242;19.796;2022-11-20T08:44:48;179.80;2252.80
66827;DHT22;53727;45.242;19.796;2022-11-20T08:47:14;179.80;2252.80
66827;DHT22;53727;45.242;19.796;2022-11-20T08:49:39;179.70;2252.80
66827;DHT22;53727;45.242;19.796;2022-11-20T08:52:05;179.70;2252.80
66827;DHT22;53727;45.242;19.796;2022-11-20T08:54:31;179.60;2252.80
66827;DHT22;53727;45.242;19.796;2022-11-20T08:56:56;179.40;2252.80
66827;DHT22;53727;45.242;19.796;2022-11-20T08:59:22;179.40;2252.80
66827;DHT22;53727;45.242;19.796;2022-11-20T09:01:48;179.30;2252.80
66827;DHT22;53727;45.242;19.796;2022-11-20T09:04:13;179.20;2252.80
66827;DHT22;53727;45.242;19.796;2022-11-20T09:06:40;179.20;2252.80
66827;DHT22;53727;45.242;19.796;2022-11-20T09:09:05;179.20;2252.80
66827;DHT22;53727;45.242;19.796;2022-11-20T09:11:31;179.30;2252.80
66827;DHT22;53727;45.242;19.796;2022-11-20T09:13:57;179.40;2252.80
66827;DHT22;53727;45.242;19.796;2022-11-20T09:16:23;179.20;2252.80
66827;DHT22;53727;45.242;19.796;2022-11-20T09:18:50;179.20;2252.80
66827;DHT22;53727;45.242;19.796;2022-11-20T09:21:16;154.50;2252.80
66827;DHT22;53727;45.242;19.796;2022-11-20T09:23:42;154.50;2252.80
66827;DHT22;53727;45.242;19.796;2022-11-20T09:26:10;154.50;2252.80
66827;DHT22;53727;45.242;19.796;2022-11-20T09:28:36;154.50;2252.80
66827;DHT22;53727;45.242;19.796;2022-11-20T09:31:07;179.20;2252.80
66827;DHT22;53727;45.242;19.796;2022-11-20T09:33:33;179.20;2252.80
66827;DHT22;53727;45.242;19.796;2022-11-20T09:35:58;179.20;2252.80
66827;DHT22;53727;45.242;19.796;2022-11-20T09:38:24;179.20;2252.80
66827;DHT22;53727;45.242;19.796;2022-11-20T09:41:01;179.30;2252.80
66827;DHT22;53727;45.242;19.796;2022-11-20T09:46:28;179.20;2252.80
66827;DHT22;53727;45.242;19.796;2022-11-20T09:54:21;179.40;2252.80
66827;DHT22;53727;45.242;19.796;2022-11-20T09:56:56;179.30;2252.80
66827;DHT22;53727;45.242;19.796;2022-11-20T10:02:01;179.20;2252.80
66827;DHT22;53727;45.242;19.796;2022-11-20T10:04:30;179.30;2252.80
66827;DHT22;53727;45.242;19.796;2022-11-20T10:09:31;179.20;2252.80
66827;DHT22;53727;45.242;19.796;2022-11-20T10:15:00;179.20;2252.80
66827;DHT22;53727;45.242;19.796;2022-11-20T10:20:14;179.20;2252.80
66827;DHT22;53727;45.242;19.796;2022-11-20T10:25:29;179.40;2252.80
66827;DHT22;53727;45.242;19.796;2022-11-20T10:30:56;179.40;2252.80
66827;DHT22;53727;45.242;19.796;2022-11-20T10:33:27;179.40;2252.80
66827;DHT22;53727;45.242;19.796;2022-11-20T10:38:36;179.30;2252.80
66827;DHT22;53727;45.242;19.796;2022-11-20T10:41:03;179.30;2252.80
66827;DHT22;53727;45.242;19.796;2022-11-20T10:43:54;179.30;2252.80
66827;DHT22;53727;45.242;19.796;2022-11-20T10:46:23;179.30;2252.80
66827;DHT22;53727;45.242;19.796;2022-11-20T10:48:50;179.30;2252.80
66827;DHT22;53727;45.242;19.796;2022-11-20T10:56:53;179.30;2252.80
66827;DHT22;53727;45.242;19.796;2022-11-20T11:02:29;179.30;2252.80
66827;DHT22;53727;45.242;19.796;2022-11-20T11:04:56;179.30;2252.80
66827;DHT22;53727;45.242;19.796;2022-11-20T11:07:36;179.30;2252.80
66827;DHT22;53727;45.242;19.796;2022-11-20T11:10:24;179.20;2252.80
66827;DHT22;53727;45.242;19.796;2022-11-20T11:12:51;179.30;2252.80
66827;DHT22;53727;45.242;19.796;2022-11-20T11:15:39;179.30;2252.80
66827;DHT22;53727;45.242;19.796;2022-11-20T11:18:10;179.30;2252.80
66827;DHT22;53727;45.242;19.796;2022-11-20T11:20:36;179.40;2252.80
66827;DHT22;53727;45.242;19.796;2022-11-20T11:23:03;179.40;2252.80
66827;DHT22;53727;45.242;19.796;2022-11-20T11:25:34;179.30;2252.80
66827;DHT22;53727;45.242;19.796;2022-11-20T11:30:45;179.30;2252.80
66827;DHT22;53727;45.242;19.796;2022-11-20T11:35:56;179.30;2252.80
66827;DHT22;53727;45.242;19.796;2022-11-20T11:38:38;179.40;2252.80
66827;DHT22;53727;45.242;19.796;2022-11-20T11:41:07;179.50;2252.80
66827;DHT22;53727;45.242;19.796;2022-11-20T11:43:36;179.60;2252.80
66827;DHT22;53727;45.242;19.796;2022-11-20T11:48:57;179.80;2252.80
66827;DHT22;53727;45.242;19.796;2022-11-20T11:51:28;179.80;2252.80
66827;DHT22;53727;45.242;19.796;2022-11-20T11:53:56;179.70;2252.80
66827;DHT22;53727;45.242;19.796;2022-11-20T11:56:24;179.60;2252.80
66827;DHT22;53727;45.242;19.796;2022-11-20T11:58:53;179.70;2252.80
66827;DHT22;53727;45.242;19.796;2022-11-20T12:01:44;179.70;2252.80
66827;DHT22;53727;45.242;19.796;2022-11-20T12:07:03;179.80;2252.80
66827;DHT22;53727;45.242;19.796;2022-11-20T12:09:41;179.80;2252.80
66827;DHT22;53727;45.242;19.796;2022-11-20T12:12:17;179.80;2252.80
